Time;durP1;ratioP1;P1;durP2;ratioP2;P2;SDS_P1;SDS_P2;PMS_P1;PMS_P2;Temp;Humidity;BMP_temperature;BMP_pressure;BME280_temperature;BME280_humidity;BME280_pressure;Samples;Min_cycle;Max_cycle;Signal;HPM_P1;HPM_P2
2022/10/28 00:02:07;;;;;;;18.30;10.75;;;13.90;99.90;;;;;;5054857;28;20049;-72
2022/10/28 00:04:32;;;;;;;19.20;11.07;;;13.90;99.90;;;;;;5053043;28;20365;-73
2022/10/28 00:06:58;;;;;;;21.00;10.95;;;13.90;99.90;;;;;;5055465;28;20056;-73
2022/10/28 00:09:23;;;;;;;19.25;11.95;;;13.90;99.90;;;;;;5055665;28;20053;-73
2022/10/28 00:11:49;;;;;;;21.88;12.88;;;13.90;99.90;;;;;;5055571;28;20041;-71
2022/10/28 00:14:14;;;;;;;22.45;11.82;;;13.90;99.90;;;;;;5021857;28;20055;-71
2022/10/28 00:16:40;;;;;;;20.20;11.85;;;14.00;99.90;;;;;;5055611;28;20420;-72
2022/10/28 00:19:09;;;;;;;23.90;13.20;;;14.00;99.90;;;;;;5049215;28;20087;-72
2022/10/28 00:21:36;;;;;;;25.05;12.45;;;14.00;99.90;;;;;;5055362;28;20048;-72
2022/10/28 00:24:02;;;;;;;24.00;12.68;;;14.00;99.90;;;;;;5055474;28;20048;-71
2022/10/28 00:26:30;;;;;;;23.13;11.85;;;14.10;99.90;;;;;;5055042;28;20515;-71
2022/10/28 00:29:03;;;;;;;25.60;11.93;;;14.10;99.90;;;;;;5055390;28;20055;-72
2022/10/28 00:31:30;;;;;;;20.58;11.18;;;14.00;99.90;;;;;;5055373;28;20049;-72
2022/10/28 00:33:56;;;;;;;21.42;12.10;;;14.20;99.90;;;;;;5053814;28;20041;-72
2022/10/28 00:36:30;;;;;;;24.73;10.15;;;14.30;99.90;;;;;;5037260;28;20055;-71
2022/10/28 00:38:57;;;;;;;19.80;10.82;;;14.20;99.90;;;;;;5055404;28;20047;-73
2022/10/28 00:41:31;;;;;;;19.77;11.30;;;14.20;99.90;;;;;;5037290;28;20072;-71
2022/10/28 00:44:00;;;;;;;23.17;11.45;;;14.20;99.90;;;;;;5055207;28;20334;-73
2022/10/28 00:46:41;;;;;;;19.33;10.88;;;14.30;99.90;;;;;;5055050;28;20412;-71
2022/10/28 00:49:09;;;;;;;24.38;11.13;;;14.30;99.90;;;;;;5052795;28;20081;-72
2022/10/28 00:51:35;;;;;;;21.38;10.60;;;14.40;99.90;;;;;;5034546;28;20045;-71
2022/10/28 00:54:03;;;;;;;21.42;11.40;;;14.40;99.90;;;;;;5054997;28;20130;-72
2022/10/28 00:56:32;;;;;;;23.38;11.88;;;14.40;99.90;;;;;;5054591;28;20401;-73
2022/10/28 00:59:01;;;;;;;19.20;11.23;;;14.40;99.90;;;;;;5037409;28;20061;-71
2022/10/28 01:01:27;;;;;;;19.85;11.75;;;14.30;99.90;;;;;;5036842;28;20063;-72
2022/10/28 01:03:54;;;;;;;20.55;11.75;;;14.30;99.90;;;;;;5054235;28;20068;-71
2022/10/28 01:06:20;;;;;;;19.00;12.02;;;14.30;99.90;;;;;;5055140;28;20080;-72
2022/10/28 01:08:46;;;;;;;21.45;12.05;;;14.30;99.90;;;;;;5055034;28;20388;-73
2022/10/28 01:11:30;;;;;;;22.40;11.93;;;14.40;99.90;;;;;;5069489;28;20052;-71
2022/10/28 01:14:14;;;;;;;20.23;11.85;;;14.40;99.90;;;;;;5072768;28;20551;-72
2022/10/28 01:16:56;;;;;;;;;;;14.30;99.90;;;;;;5059685;28;20048;-72
2022/10/28 01:19:43;;;;;;;22.00;11.77;;;14.30;99.90;;;;;;5079761;28;19920;-72
2022/10/28 01:22:19;;;;;;;19.42;11.30;;;14.30;99.90;;;;;;5079046;28;20040;-71
2022/10/28 01:25:16;;;;;;;25.52;12.70;;;14.20;99.90;;;;;;5078778;28;20368;-73
2022/10/28 01:28:08;;;;;;;20.38;12.45;;;14.20;99.90;;;;;;5075187;28;20372;-71
2022/10/28 01:31:10;;;;;;;17.42;10.60;;;14.10;99.90;;;;;;5007094;28;20867;-73
2022/10/28 01:33:38;;;;;;;20.48;13.45;;;14.10;99.90;;;;;;5058397;28;20465;-73
2022/10/28 01:36:12;;;;;;;19.85;12.93;;;14.10;99.90;;;;;;5059368;28;20048;-72
2022/10/28 01:39:00;;;;;;;25.90;12.60;;;14.00;99.90;;;;;;5057996;28;20053;-72
2022/10/28 01:41:28;;;;;;;24.27;13.82;;;14.00;99.90;;;;;;5040760;28;20048;-72
2022/10/28 01:44:03;;;;;;;19.42;12.88;;;14.00;99.90;;;;;;5041080;28;20401;-72
2022/10/28 01:46:44;;;;;;;22.65;14.07;;;14.00;99.90;;;;;;5058617;28;20041;-71
2022/10/28 01:49:22;;;;;;;29.30;13.45;;;14.00;99.90;;;;;;5064310;28;20048;-72
2022/10/28 01:51:53;;;;;;;29.95;14.68;;;14.00;99.90;;;;;;5061314;28;20052;-72
2022/10/28 01:54:23;;;;;;;26.80;14.10;;;14.10;99.90;;;;;;5078028;28;20445;-71
2022/10/28 01:56:52;;;;;;;22.25;14.57;;;13.90;99.90;;;;;;5078837;28;20456;-72
2022/10/28 01:59:22;;;;;;;20.00;13.50;;;13.90;99.90;;;;;;5078346;28;20238;-72
2022/10/28 02:01:48;;;;;;;20.35;14.07;;;13.90;99.90;;;;;;5077994;28;20403;-72
2022/10/28 02:04:13;;;;;;;22.98;14.05;;;13.90;99.90;;;;;;5061982;28;20120;-71
2022/10/28 02:06:42;;;;;;;24.63;15.15;;;13.90;99.90;;;;;;5058011;28;20055;-73
2022/10/28 02:09:29;;;;;;;21.27;13.30;;;13.90;99.90;;;;;;5058387;28;20053;-72
2022/10/28 02:12:22;;;;;;;23.92;14.73;;;13.90;99.90;;;;;;5058140;28;20049;-73
2022/10/28 02:15:09;;;;;;;27.80;15.77;;;13.90;99.90;;;;;;5058197;28;20049;-72
2022/10/28 02:18:00;;;;;;;26.02;15.95;;;13.90;99.90;;;;;;5059504;28;20441;-72
2022/10/28 02:20:42;;;;;;;22.45;15.30;;;13.80;99.90;;;;;;5078159;28;20040;-72
2022/10/28 02:23:27;;;;;;;29.33;16.17;;;13.80;99.90;;;;;;5077784;28;20509;-73
2022/10/28 02:25:59;;;;;;;27.50;14.80;;;13.80;99.90;;;;;;5077439;28;20091;-71
2022/10/28 02:28:42;;;;;;;25.40;16.03;;;13.80;99.90;;;;;;5076544;28;20044;-73
2022/10/28 02:31:21;;;;;;;22.13;14.57;;;13.70;99.90;;;;;;5077632;28;20054;-73
2022/10/28 02:33:53;;;;;;;30.17;15.63;;;13.70;99.90;;;;;;5077413;28;20437;-72
2022/10/28 02:36:22;;;;;;;30.92;17.27;;;13.70;99.90;;;;;;5077744;28;20059;-73
2022/10/28 02:38:52;;;;;;;28.50;15.82;;;13.60;99.90;;;;;;5064920;28;20076;-72
2022/10/28 02:41:44;;;;;;;23.10;14.35;;;13.60;99.90;;;;;;5057891;28;20048;-73
2022/10/28 02:44:16;;;;;;;28.00;15.23;;;13.50;99.90;;;;;;5019150;28;20061;-72
2022/10/28 02:46:45;;;;;;;31.20;16.27;;;13.40;99.90;;;;;;5057111;28;20091;-73
2022/10/28 02:49:13;;;;;;;23.65;14.88;;;13.40;99.90;;;;;;5057596;28;20052;-72
2022/10/28 02:51:52;;;;;;;26.17;14.10;;;13.40;99.90;;;;;;5040521;28;20536;-72
2022/10/28 02:54:28;;;;;;;29.85;15.57;;;13.30;99.90;;;;;;5072753;28;20052;-72
2022/10/28 02:57:02;;;;;;;25.17;14.18;;;13.30;99.90;;;;;;5059760;28;20131;-71
2022/10/28 02:59:28;;;;;;;29.02;14.40;;;13.20;99.90;;;;;;5077275;28;20364;-73
2022/10/28 03:01:54;;;;;;;28.05;14.90;;;13.20;99.90;;;;;;5077862;28;20060;-71
2022/10/28 03:04:20;;;;;;;27.63;14.35;;;13.20;99.90;;;;;;5042837;28;20056;-73
2022/10/28 03:06:45;;;;;;;35.17;14.02;;;13.10;99.90;;;;;;5077019;28;20408;-71
2022/10/28 03:09:11;;;;;;;26.42;14.68;;;13.10;99.90;;;;;;5057399;28;20064;-71
2022/10/28 03:11:36;;;;;;;24.65;14.13;;;13.10;99.90;;;;;;5057104;28;20051;-71
2022/10/28 03:14:02;;;;;;;35.70;17.80;;;13.00;99.90;;;;;;5057050;28;20041;-71
2022/10/28 03:16:28;;;;;;;35.97;17.00;;;13.00;99.90;;;;;;5039185;28;20049;-71
2022/10/28 03:18:53;;;;;;;38.35;17.13;;;13.00;99.90;;;;;;5056867;28;20060;-71
2022/10/28 03:21:19;;;;;;;31.27;18.42;;;12.90;99.90;;;;;;5039066;28;20079;-73
2022/10/28 03:23:45;;;;;;;33.00;16.50;;;12.90;99.90;;;;;;5067752;28;20044;-73
2022/10/28 03:26:10;;;;;;;32.08;17.30;;;12.90;99.90;;;;;;5076660;28;20059;-71
2022/10/28 03:28:36;;;;;;;27.42;15.70;;;12.90;99.90;;;;;;5076817;28;20151;-73
2022/10/28 03:31:02;;;;;;;32.35;15.98;;;12.90;99.90;;;;;;5076295;28;20048;-72
2022/10/28 03:33:27;;;;;;;37.10;20.52;;;12.80;99.90;;;;;;5076081;28;20052;-73
2022/10/28 03:35:53;;;;;;;29.42;18.90;;;12.80;99.90;;;;;;5076990;28;20145;-72
2022/10/28 03:38:18;;;;;;;37.58;17.83;;;12.80;99.90;;;;;;5059645;28;20041;-73
2022/10/28 03:40:47;;;;;;;44.92;18.13;;;12.80;99.90;;;;;;5056399;28;20040;-72
2022/10/28 03:43:13;;;;;;;37.35;19.67;;;12.80;99.90;;;;;;5056548;28;20048;-72
2022/10/28 03:45:39;;;;;;;39.03;21.35;;;12.70;99.90;;;;;;5053958;28;20048;-73
2022/10/28 03:48:04;;;;;;;38.30;21.33;;;12.70;99.90;;;;;;5075963;28;20044;-72
2022/10/28 03:50:30;;;;;;;34.03;20.52;;;12.70;99.90;;;;;;5075727;28;20044;-71
2022/10/28 03:52:55;;;;;;;38.72;20.25;;;12.70;99.90;;;;;;5075411;28;20424;-71
2022/10/28 03:55:22;;;;;;;35.33;20.33;;;12.80;99.90;;;;;;5076260;28;20048;-73
2022/10/28 03:57:48;;;;;;;46.95;21.20;;;12.70;99.90;;;;;;5075981;28;20453;-72
2022/10/28 04:00:14;;;;;;;41.85;20.92;;;12.70;99.90;;;;;;5057614;28;20062;-72
2022/10/28 04:02:40;;;;;;;41.55;21.08;;;12.70;99.90;;;;;;5072697;28;20052;-72
2022/10/28 04:05:06;;;;;;;40.08;20.08;;;12.70;99.90;;;;;;5077982;28;20040;-71
2022/10/28 04:07:31;;;;;;;48.45;23.08;;;12.70;99.90;;;;;;5001088;28;20591;-72
2022/10/28 04:09:57;;;;;;;43.67;22.60;;;12.70;99.90;;;;;;4995399;28;20132;-74
2022/10/28 04:12:23;;;;;;;31.70;19.00;;;12.60;99.90;;;;;;5005200;28;20372;-73
2022/10/28 04:14:48;;;;;;;27.55;16.92;;;12.70;99.90;;;;;;4994212;28;20185;-71
2022/10/28 04:17:14;;;;;;;32.85;18.88;;;12.50;99.90;;;;;;5007597;28;20451;-72
2022/10/28 04:19:40;;;;;;;34.25;18.70;;;12.50;99.90;;;;;;5013346;28;20046;-73
2022/10/28 04:22:07;;;;;;;41.15;19.77;;;12.40;99.90;;;;;;5013798;28;20064;-73
2022/10/28 04:24:32;;;;;;;29.55;17.75;;;12.40;99.90;;;;;;5013893;28;20046;-71
2022/10/28 04:26:58;;;;;;;30.27;20.30;;;12.30;99.90;;;;;;5013597;28;20438;-73
2022/10/28 04:29:23;;;;;;;40.67;21.25;;;12.30;99.90;;;;;;4984048;28;20057;-72
2022/10/28 04:31:49;;;;;;;37.50;19.23;;;12.30;99.90;;;;;;4991580;28;20046;-72
2022/10/28 04:34:14;;;;;;;31.27;18.83;;;12.30;99.90;;;;;;4976968;28;20112;-70
2022/10/28 04:36:40;;;;;;;33.97;18.88;;;12.30;99.90;;;;;;4979560;28;20053;-70
2022/10/28 04:39:06;;;;;;;32.50;18.73;;;12.30;99.90;;;;;;5057900;28;20070;-71
2022/10/28 04:41:31;;;;;;;28.88;16.95;;;12.20;99.90;;;;;;5057918;28;20041;-71
2022/10/28 04:43:57;;;;;;;32.33;19.30;;;12.20;99.90;;;;;;5057583;28;20049;-72
2022/10/28 04:46:22;;;;;;;39.20;21.13;;;12.20;99.90;;;;;;5056959;28;20114;-70
2022/10/28 04:48:48;;;;;;;29.35;17.92;;;12.10;99.90;;;;;;5057551;28;20110;-71
2022/10/28 04:51:13;;;;;;;36.72;19.50;;;12.10;99.90;;;;;;5072461;28;20040;-70
2022/10/28 04:53:39;;;;;;;38.13;21.63;;;12.10;99.90;;;;;;5057219;28;20178;-71
2022/10/28 04:56:05;;;;;;;34.22;20.02;;;12.10;99.90;;;;;;5057484;28;20059;-71
2022/10/28 04:58:30;;;;;;;33.85;20.17;;;12.00;99.90;;;;;;5061695;28;20090;-71
2022/10/28 05:00:56;;;;;;;39.15;19.90;;;12.10;99.90;;;;;;5058372;28;20045;-70
2022/10/28 05:03:22;;;;;;;36.17;19.42;;;12.00;99.90;;;;;;5064546;28;20056;-71
2022/10/28 05:05:47;;;;;;;42.75;21.42;;;12.00;99.90;;;;;;5069703;28;20049;-70
2022/10/28 05:08:13;;;;;;;39.17;21.60;;;12.00;99.90;;;;;;5045270;28;20052;-71
2022/10/28 05:10:39;;;;;;;39.45;22.35;;;12.00;99.90;;;;;;5074609;28;20036;-70
2022/10/28 05:13:04;;;;;;;42.35;23.70;;;11.90;99.90;;;;;;5074894;28;20044;-72
2022/10/28 05:15:30;;;;;;;35.70;20.02;;;12.00;99.90;;;;;;5056186;28;20070;-71
2022/10/28 05:17:56;;;;;;;35.33;21.65;;;12.00;99.90;;;;;;5074215;28;20040;-72
2022/10/28 05:20:22;;;;;;;36.10;21.75;;;12.00;99.90;;;;;;5074551;28;20392;-71
2022/10/28 05:22:51;;;;;;;32.95;21.00;;;12.00;99.90;;;;;;5056916;28;20036;-71
2022/10/28 05:25:17;;;;;;;31.95;18.67;;;12.10;99.90;;;;;;5060551;28;20063;-70
2022/10/28 05:27:43;;;;;;;28.52;17.55;;;11.90;99.90;;;;;;5037263;28;20091;-69
2022/10/28 05:30:09;;;;;;;40.20;18.80;;;11.90;99.90;;;;;;5054462;28;20484;-69
2022/10/28 05:32:35;;;;;;;35.63;18.23;;;11.90;99.90;;;;;;5036654;28;20053;-70
2022/10/28 05:35:00;;;;;;;27.42;18.13;;;11.80;99.90;;;;;;5055071;28;20434;-69
2022/10/28 05:37:26;;;;;;;35.75;20.48;;;11.80;99.90;;;;;;5028049;28;20468;-70
2022/10/28 05:39:52;;;;;;;33.90;19.55;;;11.90;99.90;;;;;;5070506;28;20123;-71
2022/10/28 05:42:17;;;;;;;36.08;20.08;;;11.70;99.90;;;;;;5074302;28;20118;-69
2022/10/28 05:44:44;;;;;;;34.88;20.38;;;11.80;99.90;;;;;;5056236;28;20131;-71
2022/10/28 05:47:09;;;;;;;42.58;23.58;;;11.70;99.90;;;;;;5074419;28;20091;-70
2022/10/28 05:49:35;;;;;;;36.03;19.83;;;11.70;99.90;;;;;;5074669;28;20055;-69
2022/10/28 05:52:01;;;;;;;33.90;17.85;;;11.70;99.90;;;;;;5074200;28;20066;-70
2022/10/28 05:54:26;;;;;;;44.70;24.42;;;11.70;99.90;;;;;;5064219;28;20080;-69
2022/10/28 05:56:52;;;;;;;39.17;20.15;;;11.70;99.90;;;;;;5055217;28;20068;-70
2022/10/28 05:59:17;;;;;;;32.65;20.52;;;11.70;99.90;;;;;;5047911;28;20119;-71
2022/10/28 06:01:43;;;;;;;45.20;22.92;;;11.70;99.90;;;;;;5032295;28;20057;-72
2022/10/28 06:04:08;;;;;;;37.65;22.45;;;11.70;99.90;;;;;;5042004;28;20477;-72
2022/10/28 06:06:34;;;;;;;55.78;23.98;;;11.70;99.90;;;;;;5048818;28;20115;-71
2022/10/28 06:09:00;;;;;;;32.38;18.35;;;11.60;99.90;;;;;;5065845;28;20049;-72
2022/10/28 06:11:25;;;;;;;32.13;19.90;;;11.60;99.90;;;;;;5066309;28;20044;-71
2022/10/28 06:13:51;;;;;;;37.53;21.48;;;11.70;99.90;;;;;;5060930;28;20398;-71
2022/10/28 06:16:16;;;;;;;40.10;23.05;;;11.60;99.90;;;;;;5077442;28;20350;-73
2022/10/28 06:18:42;;;;;;;37.50;22.10;;;11.60;99.90;;;;;;5077320;28;20364;-71
2022/10/28 06:21:08;;;;;;;31.67;19.70;;;11.70;99.90;;;;;;5077514;28;20048;-71
2022/10/28 06:23:33;;;;;;;37.88;21.67;;;11.70;99.90;;;;;;5076799;28;20036;-70
2022/10/28 06:26:01;;;;;;;35.00;19.75;;;11.70;99.90;;;;;;5059901;28;20044;-71
2022/10/28 06:28:27;;;;;;;37.85;20.73;;;11.70;99.90;;;;;;5077181;28;20045;-71
2022/10/28 06:30:53;;;;;;;45.30;23.73;;;11.70;99.90;;;;;;5060085;28;20111;-71
2022/10/28 06:33:19;;;;;;;39.22;20.83;;;11.60;99.90;;;;;;5077017;28;20066;-70
2022/10/28 06:35:44;;;;;;;38.20;22.45;;;11.80;99.90;;;;;;5059559;28;20117;-72
2022/10/28 06:38:11;;;;;;;42.72;22.83;;;11.80;99.90;;;;;;5035652;28;20052;-71
2022/10/28 06:40:36;;;;;;;45.70;23.88;;;11.80;99.90;;;;;;5039776;28;20442;-71
2022/10/28 06:43:05;;;;;;;37.17;22.35;;;11.90;99.90;;;;;;5039710;28;20053;-71
2022/10/28 06:45:32;;;;;;;38.53;22.60;;;12.10;99.90;;;;;;5056934;28;20071;-70
2022/10/28 06:48:00;;;;;;;54.30;27.48;;;12.10;99.90;;;;;;5056744;28;20086;-68
2022/10/28 06:50:27;;;;;;;38.63;23.27;;;12.10;99.90;;;;;;5073760;28;20135;-69
2022/10/28 06:52:54;;;;;;;37.50;22.83;;;12.20;99.90;;;;;;5058722;28;20056;-70
2022/10/28 06:55:20;;;;;;;39.13;23.92;;;12.20;99.90;;;;;;5058793;28;20178;-69
2022/10/28 06:57:46;;;;;;;44.40;23.38;;;12.30;99.90;;;;;;5059449;28;20139;-70
2022/10/28 07:00:12;;;;;;;43.15;22.77;;;12.30;99.90;;;;;;5074435;28;20055;-70
2022/10/28 07:02:37;;;;;;;39.90;21.83;;;12.30;99.90;;;;;;5076741;28;20052;-69
2022/10/28 07:05:03;;;;;;;38.28;21.40;;;12.40;99.90;;;;;;5076645;28;20395;-71
2022/10/28 07:07:29;;;;;;;37.00;20.92;;;12.50;99.90;;;;;;5070984;28;20033;-71
2022/10/28 07:09:54;;;;;;;37.55;20.05;;;12.50;99.90;;;;;;5056621;28;20349;-71
2022/10/28 07:12:20;;;;;;;40.00;20.25;;;12.60;99.90;;;;;;5022201;28;20053;-71
2022/10/28 07:14:45;;;;;;;38.83;21.15;;;12.60;99.90;;;;;;5066619;28;20405;-69
2022/10/28 07:17:11;;;;;;;31.52;19.80;;;12.70;99.90;;;;;;5056111;28;20048;-70
2022/10/28 07:19:36;;;;;;;34.95;19.70;;;12.70;99.90;;;;;;5057974;28;20045;-70
2022/10/28 07:22:02;;;;;;;40.42;20.70;;;13.00;99.90;;;;;;5045701;28;20048;-69
2022/10/28 07:24:28;;;;;;;36.10;19.80;;;13.00;99.90;;;;;;5047120;28;20060;-69
2022/10/28 07:26:53;;;;;;;30.92;18.55;;;12.90;99.90;;;;;;5068716;28;20055;-71
2022/10/28 07:29:19;;;;;;;27.08;16.75;;;13.00;99.90;;;;;;5059516;28;20037;-72
2022/10/28 07:31:44;;;;;;;31.38;16.52;;;13.20;99.90;;;;;;5052946;28;20055;-71
2022/10/28 07:34:10;;;;;;;33.13;17.90;;;13.10;99.90;;;;;;5071353;28;20355;-70
2022/10/28 07:36:36;;;;;;;30.55;17.42;;;13.30;99.90;;;;;;5064188;28;20318;-71
2022/10/28 07:39:01;;;;;;;30.65;16.30;;;13.30;99.90;;;;;;5064240;28;20136;-71
2022/10/28 07:41:27;;;;;;;28.10;16.45;;;13.30;99.90;;;;;;5044003;28;20044;-71
2022/10/28 07:43:53;;;;;;;26.98;15.07;;;13.50;99.90;;;;;;5055713;28;20512;-71
2022/10/28 07:46:19;;;;;;;21.88;13.50;;;13.50;99.90;;;;;;5043903;28;20051;-70
2022/10/28 07:48:45;;;;;;;24.73;13.75;;;13.50;99.90;;;;;;5066138;28;20045;-71
2022/10/28 07:51:14;;;;;;;22.13;13.75;;;13.60;99.90;;;;;;5055920;28;20443;-70
2022/10/28 07:53:40;;;;;;;24.67;13.82;;;13.70;99.90;;;;;;5055865;28;20056;-71
2022/10/28 07:56:12;;;;;;;30.55;13.45;;;13.80;99.90;;;;;;5055286;28;20041;-70
2022/10/28 07:58:38;;;;;;;24.35;12.68;;;13.80;99.90;;;;;;5053591;28;20060;-70
2022/10/28 08:01:07;;;;;;;23.10;12.57;;;13.90;99.90;;;;;;5049674;28;20041;-72
2022/10/28 08:03:33;;;;;;;23.35;11.85;;;13.90;99.90;;;;;;5057243;28;20353;-71
2022/10/28 08:06:04;;;;;;;20.25;11.35;;;14.00;99.90;;;;;;5063691;28;20041;-69
2022/10/28 08:08:31;;;;;;;19.90;11.15;;;14.10;99.90;;;;;;5062524;28;20044;-70
2022/10/28 08:10:57;;;;;;;23.83;12.75;;;14.10;99.90;;;;;;5058547;28;20081;-69
2022/10/28 08:13:22;;;;;;;22.17;11.27;;;14.20;99.90;;;;;;5074835;28;20079;-70
2022/10/28 08:15:54;;;;;;;23.48;11.65;;;14.30;99.90;;;;;;5075350;28;20053;-71
2022/10/28 08:18:21;;;;;;;20.92;10.40;;;14.30;99.90;;;;;;5075510;28;20048;-70
2022/10/28 08:20:47;;;;;;;22.13;10.85;;;14.40;99.90;;;;;;5075507;28;20044;-70
2022/10/28 08:23:13;;;;;;;25.58;10.98;;;14.40;99.90;;;;;;5075354;28;20040;-70
2022/10/28 08:25:48;;;;;;;20.13;10.60;;;14.50;99.90;;;;;;5074281;28;20037;-72
2022/10/28 08:28:13;;;;;;;18.95;9.95;;;14.50;99.90;;;;;;5074340;28;20461;-72
2022/10/28 08:30:39;;;;;;;22.60;9.85;;;14.60;99.90;;;;;;5075119;28;20076;-72
2022/10/28 08:33:04;;;;;;;22.85;9.85;;;14.60;99.90;;;;;;5074916;28;20059;-71
2022/10/28 08:35:30;;;;;;;20.98;9.73;;;14.70;99.90;;;;;;5074967;28;20048;-72
2022/10/28 08:37:55;;;;;;;23.95;9.77;;;14.70;99.90;;;;;;5075189;28;20043;-72
2022/10/28 08:40:34;;;;;;;22.50;10.05;;;14.80;99.90;;;;;;5074729;28;20032;-71
2022/10/28 08:43:12;;;;;;;18.17;9.80;;;14.80;99.90;;;;;;5057002;28;20090;-72
2022/10/28 08:45:40;;;;;;;19.15;9.32;;;14.90;99.90;;;;;;5075169;28;20076;-71
2022/10/28 08:48:23;;;;;;;22.80;9.60;;;15.00;99.90;;;;;;5074909;28;20376;-71
2022/10/28 08:50:53;;;;;;;17.40;8.33;;;15.10;99.90;;;;;;5056949;28;20044;-69
2022/10/28 08:53:24;;;;;;;23.48;8.85;;;15.20;99.90;;;;;;5057125;28;20084;-69
2022/10/28 08:55:52;;;;;;;25.98;9.65;;;15.30;99.90;;;;;;5060557;28;20196;-69
2022/10/28 08:58:32;;;;;;;20.92;8.48;;;15.30;99.90;;;;;;5055009;28;20472;-70
2022/10/28 09:01:00;;;;;;;23.02;8.70;;;15.50;99.90;;;;;;5034909;28;20184;-72
2022/10/28 09:03:31;;;;;;;20.83;8.98;;;15.60;99.90;;;;;;5036301;28;20053;-70
2022/10/28 09:06:02;;;;;;;22.58;8.45;;;15.60;99.90;;;;;;5054390;28;20049;-71
2022/10/28 09:08:33;;;;;;;18.67;8.75;;;15.80;99.90;;;;;;5054682;28;20373;-70
2022/10/28 09:11:21;;;;;;;19.00;8.75;;;15.90;99.90;;;;;;5054450;28;20044;-71
2022/10/28 09:13:46;;;;;;;15.93;8.57;;;16.00;99.90;;;;;;5054113;28;20106;-69
2022/10/28 09:16:18;;;;;;;15.65;8.57;;;16.10;99.90;;;;;;5036499;28;20049;-70
2022/10/28 09:18:51;;;;;;;23.63;8.25;;;16.20;99.90;;;;;;5054124;28;20041;-70
2022/10/28 09:21:37;;;;;;;;;;;16.30;99.90;;;;;;5055147;28;20362;-70
2022/10/28 09:24:23;;;;;;;17.83;7.40;;;16.30;99.90;;;;;;5053186;28;20317;-70
2022/10/28 09:26:56;;;;;;;19.10;8.07;;;16.40;99.90;;;;;;5054409;28;20091;-70
2022/10/28 09:29:44;;;;;;;17.33;7.03;;;16.50;99.90;;;;;;5035826;28;20049;-70
2022/10/28 09:32:35;;;;;;;14.85;7.15;;;16.60;99.90;;;;;;5054380;28;20438;-69
2022/10/28 09:35:14;;;;;;;14.40;6.72;;;16.60;99.90;;;;;;5035972;28;20056;-70
2022/10/28 09:37:58;;;;;;;20.73;8.63;;;16.70;99.90;;;;;;5056565;28;20084;-68
2022/10/28 09:40:28;;;;;;;13.98;6.53;;;16.70;99.90;;;;;;5058297;28;20100;-71
2022/10/28 09:43:21;;;;;;;17.88;7.07;;;16.80;99.90;;;;;;5058176;28;20136;-71
2022/10/28 09:45:49;;;;;;;19.38;7.65;;;16.80;99.90;;;;;;5040760;28;20048;-70
2022/10/28 09:48:34;;;;;;;16.40;6.90;;;16.90;99.90;;;;;;5040521;28;20473;-69
2022/10/28 09:51:00;;;;;;;17.27;7.55;;;16.90;99.90;;;;;;5057939;28;20055;-72
2022/10/28 09:53:38;;;;;;;15.48;6.60;;;17.00;99.90;;;;;;5040044;28;20045;-71
2022/10/28 09:56:05;;;;;;;15.38;6.53;;;17.10;99.90;;;;;;5057915;28;20127;-71
2022/10/28 09:58:32;;;;;;;16.92;7.47;;;17.10;99.90;;;;;;5040258;28;20056;-71
2022/10/28 10:00:58;;;;;;;24.30;7.28;;;17.20;99.90;;;;;;5057277;28;20130;-70
2022/10/28 10:03:24;;;;;;;18.30;6.88;;;17.20;99.90;;;;;;5057868;28;20116;-72
2022/10/28 10:05:52;;;;;;;16.30;6.93;;;17.20;99.90;;;;;;5077516;28;20068;-71
2022/10/28 10:08:21;;;;;;;19.70;7.00;;;17.30;99.90;;;;;;5078078;28;20141;-70
2022/10/28 10:10:59;;;;;;;16.73;7.03;;;17.20;99.90;;;;;;5077677;28;20049;-70
2022/10/28 10:13:35;;;;;;;21.05;6.72;;;17.40;99.90;;;;;;5060116;28;20036;-72
2022/10/28 10:16:12;;;;;;;17.60;6.65;;;17.40;99.90;;;;;;5060144;28;20360;-71
2022/10/28 10:18:45;;;;;;;14.93;6.50;;;17.50;99.90;;;;;;5059023;28;20136;-71
2022/10/28 10:21:11;;;;;;;20.38;6.63;;;17.50;99.90;;;;;;5077152;28;20488;-71
2022/10/28 10:23:37;;;;;;;18.80;7.35;;;17.50;99.90;;;;;;5077656;28;20080;-70
2022/10/28 10:26:09;;;;;;;18.60;6.20;;;17.60;99.90;;;;;;5077730;28;20033;-70
2022/10/28 10:28:38;;;;;;;16.67;6.75;;;17.60;99.90;;;;;;5077392;28;20119;-69
2022/10/28 10:31:07;;;;;;;15.20;6.20;;;17.70;99.90;;;;;;5077378;28;20044;-70
2022/10/28 10:33:34;;;;;;;14.02;6.40;;;17.70;99.90;;;;;;5060677;28;20060;-70
2022/10/28 10:36:09;;;;;;;16.05;5.88;;;17.70;99.90;;;;;;5055194;28;20041;-70
2022/10/28 10:38:36;;;;;;;17.88;6.28;;;17.80;99.90;;;;;;5066486;28;20045;-70
2022/10/28 10:41:02;;;;;;;11.57;5.93;;;17.80;99.90;;;;;;5076825;28;20044;-70
2022/10/28 10:43:33;;;;;;;21.27;7.00;;;17.90;99.90;;;;;;5060318;28;20075;-70
2022/10/28 10:46:07;;;;;;;20.98;5.82;;;18.00;99.90;;;;;;5058791;28;20044;-72
2022/10/28 10:48:37;;;;;;;15.73;5.93;;;18.00;99.90;;;;;;5070165;28;20049;-71
2022/10/28 10:51:16;;;;;;;11.57;5.50;;;18.10;99.90;;;;;;5056215;28;20446;-72
2022/10/28 10:53:47;;;;;;;14.40;5.82;;;18.20;99.90;;;;;;5068457;28;20060;-73
2022/10/28 10:56:21;;;;;;;13.60;5.60;;;18.20;99.90;;;;;;5059194;28;20365;-71
2022/10/28 10:58:50;;;;;;;26.55;5.60;;;18.30;99.90;;;;;;5076379;28;20055;-72
2022/10/28 11:01:23;;;;;;;18.38;6.00;;;18.40;99.90;;;;;;5056966;28;20033;-72
2022/10/28 11:03:52;;;;;;;;;;;18.50;99.90;;;;;;5059287;28;20044;-72
2022/10/28 11:06:24;;;;;;;15.75;5.68;;;18.50;99.90;;;;;;5062288;28;19990;-71
2022/10/28 11:08:57;;;;;;;15.95;5.70;;;18.50;99.90;;;;;;5065189;28;20045;-73
2022/10/28 11:11:37;;;;;;;14.75;5.32;;;18.60;99.90;;;;;;5070977;28;20040;-71
2022/10/28 11:14:17;;;;;;;15.93;6.60;;;18.60;99.90;;;;;;5055874;28;20041;-72
2022/10/28 11:16:50;;;;;;;17.85;5.57;;;18.70;99.90;;;;;;5056205;28;20081;-72
2022/10/28 11:19:32;;;;;;;;;;;18.70;99.90;;;;;;5057007;28;20132;-73
2022/10/28 11:22:25;;;;;;;19.33;5.97;;;18.70;99.90;;;;;;5056158;28;19935;-72
2022/10/28 11:25:16;;;;;;;15.88;5.55;;;18.80;99.90;;;;;;5038837;28;20044;-72
2022/10/28 11:28:06;;;;;;;16.75;5.50;;;18.90;99.90;;;;;;5056142;28;20179;-72
2022/10/28 11:30:38;;;;;;;13.55;5.15;;;19.00;99.90;;;;;;5073994;28;20037;-71
2022/10/28 11:33:17;;;;;;;15.48;5.72;;;19.00;99.90;;;;;;5058688;28;20049;-71
2022/10/28 11:36:21;;;;;;;19.35;5.63;;;19.20;99.90;;;;;;5058843;28;20123;-70
2022/10/28 11:39:03;;;;;;;22.10;5.57;;;19.20;99.90;;;;;;5076012;28;20040;-72
2022/10/28 11:41:48;;;;;;;17.00;5.57;;;19.40;99.90;;;;;;5076125;28;20048;-71
2022/10/28 11:44:38;;;;;;;21.65;6.03;;;19.40;99.90;;;;;;5058494;28;20468;-70
2022/10/28 11:47:31;;;;;;;18.35;5.93;;;19.40;99.90;;;;;;5055829;28;20449;-70
2022/10/28 11:50:40;;;;;;;17.00;5.93;;;19.40;99.90;;;;;;5037640;28;20045;-72
2022/10/28 11:53:31;;;;;;;18.80;5.68;;;19.50;99.90;;;;;;5055956;28;20137;-72
2022/10/28 11:56:20;;;;;;;13.00;5.50;;;19.40;99.90;;;;;;5041707;28;20071;-73
2022/10/28 11:59:06;;;;;;;15.93;5.85;;;19.50;99.90;;;;;;5067067;28;20048;-73
2022/10/28 12:01:35;;;;;;;15.70;5.45;;;19.50;99.90;;;;;;5057727;28;20060;-73
2022/10/28 12:04:26;;;;;;;15.43;4.95;;;19.50;99.90;;;;;;5075767;28;20040;-72
2022/10/28 12:07:18;;;;;;;17.27;5.15;;;19.50;99.90;;;;;;5028847;28;20054;-73
2022/10/28 12:10:06;;;;;;;14.40;5.25;;;19.50;99.90;;;;;;5058092;28;20135;-74
2022/10/28 12:13:09;;;;;;;19.27;5.65;;;19.60;99.90;;;;;;5067609;28;20036;-75
2022/10/28 12:15:46;;;;;;;20.87;6.60;;;19.60;99.90;;;;;;5055578;28;20090;-72
2022/10/28 12:18:26;;;;;;;16.08;7.20;;;19.70;99.90;;;;;;5038099;28;20067;-73
2022/10/28 12:21:01;;;;;;;24.05;6.78;;;19.70;99.90;;;;;;5054765;28;20049;-73
2022/10/28 12:23:30;;;;;;;13.63;6.03;;;19.70;99.90;;;;;;5054995;28;20119;-74
2022/10/28 12:25:58;;;;;;;15.90;5.38;;;19.70;99.90;;;;;;5055125;28;20057;-74
2022/10/28 12:28:30;;;;;;;15.13;5.70;;;19.70;99.90;;;;;;5042705;28;20056;-73
2022/10/28 12:30:57;;;;;;;14.85;5.93;;;19.70;99.90;;;;;;5075349;28;20041;-74
2022/10/28 12:33:40;;;;;;;19.30;5.95;;;19.80;99.90;;;;;;5075270;28;20048;-75
2022/10/28 12:36:09;;;;;;;15.80;5.28;;;19.80;99.90;;;;;;5074649;28;20064;-71
2022/10/28 12:38:54;;;;;;;13.55;5.72;;;19.80;99.90;;;;;;5075109;28;20041;-73
2022/10/28 12:41:26;;;;;;;21.30;5.30;;;19.80;99.90;;;;;;5072999;28;20040;-70
2022/10/28 12:44:06;;;;;;;20.13;5.45;;;19.80;99.90;;;;;;5036572;28;20041;-73
2022/10/28 12:47:02;;;;;;;12.45;5.07;;;19.80;99.90;;;;;;5054800;28;20373;-73
2022/10/28 12:50:01;;;;;;;17.13;5.80;;;19.80;99.90;;;;;;5056388;28;20123;-71
2022/10/28 12:52:38;;;;;;;16.65;5.40;;;19.80;99.90;;;;;;5057013;28;20385;-72